Time;durP1;ratioP1;P1;durP2;ratioP2;P2;SDS_P1;SDS_P2;PMS_P1;PMS_P2;Temp;Humidity;BMP_temperature;BMP_pressure;BME280_temperature;BME280_humidity;BME280_pressure;Samples;Min_cycle;Max_cycle;Signal;HPM_P1;HPM_P2
2024/02/28 00:00:16;;;;;;;15.60;9.57;;;;;;;29.49;66.58;100975.75;5047955;28;65690;-30
2024/02/28 00:02:46;;;;;;;11.97;8.93;;;;;;;29.51;66.65;100968.28;5057869;28;70018;-30
2024/02/28 00:05:17;;;;;;;12.20;9.32;;;;;;;29.51;67.34;100969.13;5055866;28;65297;-30
2024/02/28 00:07:48;;;;;;;14.48;8.85;;;;;;;29.56;67.11;100974.72;5055556;28;70337;-30
2024/02/28 00:10:19;;;;;;;13.73;9.07;;;;;;;29.60;67.27;100969.72;5054546;28;66095;-31
2024/02/28 00:12:49;;;;;;;15.70;10.17;;;;;;;29.64;67.11;100973.69;5056271;28;69428;-31
2024/02/28 00:15:20;;;;;;;10.93;9.15;;;;;;;29.68;67.62;100974.13;5045065;28;65360;-30
2024/02/28 00:17:53;;;;;;;19.77;9.32;;;;;;;29.72;67.30;100986.16;5054246;28;69852;-30
2024/02/28 00:20:27;;;;;;;11.27;9.27;;;;;;;29.72;67.81;100973.47;5057122;28;65921;-30
2024/02/28 00:22:57;;;;;;;18.40;10.60;;;;;;;29.76;67.92;100977.44;5054437;28;71078;-30
2024/02/28 00:25:28;;;;;;;19.73;11.02;;;;;;;29.77;68.16;100973.69;5059735;28;66220;-30
2024/02/28 00:27:58;;;;;;;21.67;11.48;;;;;;;29.79;68.47;100987.81;5056502;28;70547;-30
2024/02/28 00:30:29;;;;;;;25.70;11.75;;;;;;;29.78;68.68;100980.78;5056747;28;66433;-31
2024/02/28 00:33:00;;;;;;;15.07;10.82;;;;;;;29.80;68.03;100997.59;5051803;28;70244;-30
2024/02/28 00:35:33;;;;;;;26.13;10.40;;;;;;;29.82;68.44;100990.09;5050217;28;66433;-30
2024/02/28 00:38:04;;;;;;;13.30;9.88;;;;;;;29.84;68.62;100998.84;5055449;28;69553;-33
2024/02/28 00:40:34;;;;;;;19.25;10.07;;;;;;;29.88;68.27;101006.53;5060625;28;66068;-31
2024/02/28 00:43:05;;;;;;;11.98;8.52;;;;;;;29.92;68.12;101005.06;5055333;28;70632;-30
2024/02/28 00:45:36;;;;;;;11.60;8.60;;;;;;;29.93;68.88;101009.44;5059311;28;66858;-30
2024/02/28 00:48:07;;;;;;;19.45;8.07;;;;;;;29.94;68.97;101009.22;5049790;28;70376;-30
2024/02/28 00:50:37;;;;;;;11.52;8.63;;;;;;;29.96;68.29;101004.44;5050712;28;67243;-32
2024/02/28 00:53:08;;;;;;;12.88;8.13;;;;;;;29.99;68.76;101014.00;5050884;28;70273;-31
2024/02/28 00:55:38;;;;;;;8.68;7.40;;;;;;;29.97;68.54;101016.91;5042821;28;66438;-31
2024/02/28 00:58:09;;;;;;;9.68;7.40;;;;;;;30.04;68.79;101011.50;5058180;28;70581;-30
2024/02/28 01:00:39;;;;;;;14.65;7.88;;;;;;;30.04;68.46;101015.03;5055157;28;66764;-32
2024/02/28 01:03:13;;;;;;;8.55;7.13;;;;;;;30.04;68.77;101006.91;5059098;28;70401;-32
2024/02/28 01:05:44;;;;;;;13.38;7.80;;;;;;;30.08;68.51;101010.03;5043009;28;66298;-30
2024/02/28 01:08:17;;;;;;;10.27;7.15;;;;;;;30.10;68.47;101009.81;5058649;28;69935;-30
2024/02/28 01:10:47;;;;;;;8.95;6.95;;;;;;;30.10;68.61;101004.41;5053366;28;66092;-30
2024/02/28 01:13:17;;;;;;;11.43;6.57;;;;;;;30.15;68.69;101008.16;5063113;28;69639;-31
2024/02/28 01:15:48;;;;;;;8.43;6.53;;;;;;;30.18;68.26;101018.53;5048223;28;66568;-30
2024/02/28 01:18:19;;;;;;;10.98;7.15;;;;;;;30.19;68.23;101013.94;5057223;28;69562;-31
2024/02/28 01:20:51;;;;;;;9.35;6.47;;;;;;;30.20;68.24;101011.03;5042126;28;66843;-31
2024/02/28 01:23:22;;;;;;;8.85;7.53;;;;;;;30.18;67.91;101009.59;5046986;28;69636;-31
2024/02/28 01:25:52;;;;;;;10.73;7.43;;;;;;;30.24;67.59;101011.47;5040538;28;66284;-31
2024/02/28 01:28:23;;;;;;;7.28;6.35;;;;;;;30.25;67.69;101013.94;5043737;28;69523;-30
2024/02/28 01:30:53;;;;;;;9.00;7.20;;;;;;;30.29;67.73;101011.66;5041712;28;66403;-30
2024/02/28 01:33:24;;;;;;;12.65;6.90;;;;;;;30.30;67.77;101015.19;5043732;28;69466;-30
2024/02/28 01:35:55;;;;;;;13.25;7.00;;;;;;;30.32;67.01;101018.53;5040042;28;66498;-31
2024/02/28 01:38:28;;;;;;;10.40;6.93;;;;;;;30.34;67.01;101013.72;5050300;28;70244;-33
2024/02/28 01:40:58;;;;;;;7.50;6.68;;;;;;;30.31;67.63;101017.69;5044914;28;66535;-31
2024/02/28 01:43:29;;;;;;;14.93;6.60;;;;;;;30.38;67.48;101023.09;5040646;28;70503;-30
2024/02/28 01:46:10;;;;;;;7.65;6.78;;;;;;;30.33;67.34;101009.38;5042153;28;65625;-31
2024/02/28 01:48:41;;;;;;;9.95;6.88;;;;;;;30.44;67.21;101016.81;5038914;28;70462;-30
2024/02/28 01:51:12;;;;;;;6.88;6.05;;;;;;;30.44;67.17;101024.94;5041405;28;66062;-31
2024/02/28 01:53:45;;;;;;;8.43;6.05;;;;;;;30.44;66.84;101022.22;5051087;28;70425;-31
2024/02/28 01:56:16;;;;;;;11.32;6.10;;;;;;;30.51;66.70;101028.47;5044111;28;65410;-30
2024/02/28 01:58:48;;;;;;;7.00;6.15;;;;;;;30.54;66.38;101032.63;5042961;28;69697;-30
2024/02/28 02:01:18;;;;;;;;;;;;;;;30.44;67.49;101027.63;5041061;28;66678;-31
2024/02/28 02:03:53;;;;;;;8.35;6.03;;;;;;;30.58;66.22;101028.41;5046972;28;70086;-31
2024/02/28 02:06:24;;;;;;;6.35;5.75;;;;;;;30.59;66.57;101040.91;5051188;28;68116;-30
2024/02/28 02:08:55;;;;;;;7.60;5.80;;;;;;;30.59;66.69;101033.63;5041306;28;70489;-31
2024/02/28 02:11:26;;;;;;;7.50;6.55;;;;;;;30.64;66.54;101035.69;5056759;28;65133;-34
2024/02/28 02:13:57;;;;;;;8.17;5.77;;;;;;;30.65;66.10;101032.78;5039615;28;70689;-30
2024/02/28 02:16:27;;;;;;;6.40;5.28;;;;;;;30.68;66.06;101032.34;5048975;28;65973;-31
2024/02/28 02:18:58;;;;;;;7.55;6.75;;;;;;;30.57;66.70;101011.34;5045075;28;69745;-31
2024/02/28 02:21:39;;;;;;;8.35;5.68;;;;;;;30.72;66.59;101041.69;5044850;28;65374;-30
2024/02/28 02:24:10;;;;;;;6.47;5.78;;;;;;;30.77;66.00;101032.09;5049086;28;69550;-30
2024/02/28 02:26:43;;;;;;;6.33;5.73;;;;;;;30.74;66.04;101025.22;5052672;28;65996;-31
2024/02/28 02:29:14;;;;;;;6.00;5.40;;;;;;;30.80;66.05;101026.28;5047322;28;69791;-30
2024/02/28 02:31:45;;;;;;;6.50;5.28;;;;;;;30.84;65.88;101022.91;5047892;28;65090;-31
2024/02/28 02:34:15;;;;;;;6.05;5.20;;;;;;;30.88;66.31;101028.72;5045201;28;70037;-31
2024/02/28 02:36:46;;;;;;;7.03;5.65;;;;;;;30.82;66.06;101011.47;5041413;28;66335;-31
2024/02/28 02:39:17;;;;;;;5.53;5.13;;;;;;;30.94;65.94;101022.44;5044185;28;69896;-30
2024/02/28 02:41:47;;;;;;;6.82;6.22;;;;;;;30.98;65.74;101028.25;5046084;28;65529;-31
2024/02/28 02:44:18;;;;;;;6.35;5.63;;;;;;;30.99;65.92;101019.09;5051132;28;69697;-31
2024/02/28 02:46:49;;;;;;;5.83;5.33;;;;;;;31.02;65.65;101018.66;5057011;28;66941;-31
2024/02/28 02:49:20;;;;;;;7.90;5.65;;;;;;;31.02;65.43;101014.06;5053684;28;70318;-30
2024/02/28 02:51:50;;;;;;;6.15;5.70;;;;;;;31.09;65.33;101022.13;5054400;28;66403;-30
2024/02/28 02:54:21;;;;;;;5.70;5.30;;;;;;;31.11;65.57;101026.28;5050565;28;70449;-31
2024/02/28 02:56:51;;;;;;;6.38;5.38;;;;;;;31.15;65.79;101023.97;5041522;28;65629;-31
2024/02/28 02:59:22;;;;;;;5.72;5.03;;;;;;;31.21;65.61;101027.69;5065666;28;69220;-31
2024/02/28 03:01:53;;;;;;;6.60;5.75;;;;;;;31.22;65.41;101015.78;5052954;28;65877;-30
2024/02/28 03:04:23;;;;;;;8.27;5.37;;;;;;;31.26;65.25;101014.28;5050640;28;70505;-31
2024/02/28 03:06:54;;;;;;;7.20;5.15;;;;;;;31.29;65.29;101014.72;5054785;28;66297;-30
2024/02/28 03:09:24;;;;;;;6.22;5.63;;;;;;;31.31;64.97;101011.75;5053565;28;70229;-31
2024/02/28 03:11:55;;;;;;;6.45;5.65;;;;;;;31.35;65.28;101013.00;5044014;28;66292;-34
2024/02/28 03:14:27;;;;;;;5.82;5.35;;;;;;;31.38;64.81;101005.28;5052714;28;70055;-31
2024/02/28 03:16:57;;;;;;;5.97;5.22;;;;;;;31.41;64.63;101006.72;5053024;28;66001;-30
2024/02/28 03:19:28;;;;;;;6.47;5.43;;;;;;;31.45;64.83;101002.50;5048293;28;69510;-30
2024/02/28 03:21:58;;;;;;;5.65;5.25;;;;;;;31.47;64.82;101013.13;5049303;28;66914;-32
2024/02/28 03:24:29;;;;;;;5.70;5.30;;;;;;;31.50;64.66;100996.41;5054197;28;69853;-30
2024/02/28 03:26:59;;;;;;;8.75;5.72;;;;;;;31.52;65.03;100991.63;5052561;28;66040;-31
2024/02/28 03:29:30;;;;;;;5.85;5.25;;;;;;;31.54;64.74;100990.34;5057369;28;70717;-31
2024/02/28 03:32:01;;;;;;;5.63;5.10;;;;;;;31.57;64.53;100973.63;5045326;28;66289;-30
2024/02/28 03:34:31;;;;;;;5.70;5.13;;;;;;;31.60;64.65;100981.31;5046668;28;70422;-31
2024/02/28 03:37:02;;;;;;;5.88;4.90;;;;;;;31.64;64.24;100980.88;5053467;28;66362;-31
2024/02/28 03:39:32;;;;;;;6.45;5.88;;;;;;;31.66;64.46;100981.47;5054531;28;68934;-32
2024/02/28 03:42:03;;;;;;;5.57;5.13;;;;;;;31.69;64.11;100975.59;5041354;28;65396;-31
2024/02/28 03:44:34;;;;;;;5.50;5.07;;;;;;;31.72;64.68;100975.16;5049357;28;69248;-32
2024/02/28 03:47:05;;;;;;;5.55;5.05;;;;;;;31.75;64.39;100975.53;5059978;28;66491;-30
2024/02/28 03:49:36;;;;;;;4.28;3.97;;;;;;;31.77;64.30;100967.19;5052763;28;70636;-34
2024/02/28 03:52:06;;;;;;;7.65;5.05;;;;;;;31.81;64.48;100968.38;5057394;28;66340;-31
2024/02/28 03:54:37;;;;;;;6.95;5.30;;;;;;;31.80;64.05;100962.13;5047621;28;69655;-30
2024/02/28 03:57:07;;;;;;;5.57;5.07;;;;;;;31.88;64.27;100954.75;5046333;28;66019;-32
2024/02/28 03:59:38;;;;;;;5.60;5.20;;;;;;;31.90;64.42;100950.78;5041745;28;69676;-32
2024/02/28 04:02:09;;;;;;;4.93;4.53;;;;;;;31.92;64.42;100956.81;5067764;28;66475;-30
2024/02/28 04:04:40;;;;;;;5.95;5.32;;;;;;;31.94;64.15;100941.13;5060543;28;70301;-32
2024/02/28 04:07:11;;;;;;;5.28;4.88;;;;;;;31.97;64.11;100932.53;5060179;28;65814;-32
2024/02/28 04:09:42;;;;;;;5.57;5.18;;;;;;;31.98;64.12;100928.78;5042668;28;70249;-31
2024/02/28 04:12:12;;;;;;;5.25;4.80;;;;;;;32.01;64.26;100917.50;5050015;28;66256;-33
2024/02/28 04:14:43;;;;;;;5.03;4.63;;;;;;;31.93;64.24;100900.66;5051807;28;69355;-30
2024/02/28 04:17:14;;;;;;;5.57;5.03;;;;;;;32.07;64.00;100912.19;5045880;28;66055;-30
2024/02/28 04:19:44;;;;;;;5.35;4.85;;;;;;;32.09;64.30;100912.78;5041663;28;70356;-31
2024/02/28 04:22:15;;;;;;;8.20;4.80;;;;;;;32.12;63.89;100909.63;5044278;28;65641;-30
2024/02/28 04:24:45;;;;;;;5.18;4.68;;;;;;;32.15;64.36;100910.00;5043343;28;70394;-30
2024/02/28 04:27:16;;;;;;;4.88;4.47;;;;;;;32.12;63.97;100893.34;5054719;28;65748;-31
2024/02/28 04:29:46;;;;;;;4.75;4.45;;;;;;;32.20;63.86;100901.16;5052916;28;69597;-31
2024/02/28 04:32:17;;;;;;;7.00;4.95;;;;;;;32.18;63.81;100887.84;5056827;28;66431;-31
2024/02/28 04:34:47;;;;;;;5.55;5.05;;;;;;;32.28;63.79;100890.00;5049251;28;69590;-32
2024/02/28 04:37:18;;;;;;;5.68;5.18;;;;;;;32.30;63.63;100885.16;5059582;28;66037;-32
2024/02/28 04:39:48;;;;;;;4.97;4.57;;;;;;;32.33;63.70;100876.56;5043043;28;70190;-33
2024/02/28 04:42:19;;;;;;;5.38;4.93;;;;;;;32.28;63.68;100860.13;5041090;28;66532;-30
2024/02/28 04:44:50;;;;;;;5.30;4.80;;;;;;;32.34;63.90;100867.34;5046423;28;70486;-30
2024/02/28 04:47:20;;;;;;;5.25;4.75;;;;;;;32.38;63.38;100871.28;5044198;28;66293;-31
2024/02/28 04:50:04;;;;;;;5.13;4.72;;;;;;;32.37;63.67;100864.16;5042839;28;69526;-31
2024/02/28 04:52:35;;;;;;;5.50;5.03;;;;;;;32.42;63.43;100864.31;5042805;27;66386;-31
2024/02/28 04:55:05;;;;;;;6.10;5.45;;;;;;;32.46;63.57;100857.41;5049406;28;70444;-30
2024/02/28 04:57:36;;;;;;;5.03;4.63;;;;;;;32.46;63.59;100867.44;5055577;28;65141;-31
2024/02/28 05:00:10;;;;;;;6.88;4.90;;;;;;;32.49;63.53;100861.53;5038151;28;69083;-30
2024/02/28 05:02:41;;;;;;;5.47;4.97;;;;;;;32.53;63.54;100842.91;5053810;28;66253;-31
2024/02/28 05:05:12;;;;;;;5.20;4.80;;;;;;;32.54;63.21;100836.38;5044120;28;69849;-31
2024/02/28 05:07:43;;;;;;;5.25;4.78;;;;;;;32.57;63.41;100835.91;5036149;28;65272;-32
2024/02/28 05:10:14;;;;;;;4.78;4.38;;;;;;;32.59;63.06;100837.34;5050723;28;70886;-31
2024/02/28 05:12:44;;;;;;;5.65;5.15;;;;;;;32.60;63.45;100830.06;5052454;28;65842;-31
2024/02/28 05:15:16;;;;;;;4.90;4.50;;;;;;;32.67;63.37;100814.47;5061070;28;69749;-30
2024/02/28 05:17:47;;;;;;;4.70;4.30;;;;;;;32.69;63.60;100815.88;5059173;28;66068;-31
2024/02/28 05:20:17;;;;;;;4.97;4.57;;;;;;;32.72;63.31;100795.56;5050287;28;69449;-31
2024/02/28 05:22:47;;;;;;;5.97;5.00;;;;;;;32.75;63.01;100795.09;5042715;28;66156;-32
2024/02/28 05:25:18;;;;;;;5.45;4.95;;;;;;;32.78;62.97;100786.47;5049560;28;70165;-30
2024/02/28 05:27:49;;;;;;;5.78;4.25;;;;;;;32.81;62.97;100788.72;5052263;28;66413;-32
2024/02/28 05:30:20;;;;;;;5.57;4.97;;;;;;;32.84;62.90;100790.97;5041984;28;70486;-31
2024/02/28 05:32:51;;;;;;;5.70;4.80;;;;;;;32.83;63.03;100775.75;5045258;28;66422;-32
2024/02/28 05:35:21;;;;;;;4.63;4.22;;;;;;;32.88;62.95;100773.16;5050108;28;70138;-34
2024/02/28 05:37:54;;;;;;;6.05;4.85;;;;;;;32.88;62.98;100767.72;5053115;28;65753;-31
2024/02/28 05:40:25;;;;;;;5.50;4.95;;;;;;;32.86;62.76;100748.09;5044157;28;70577;-32
2024/02/28 05:42:55;;;;;;;8.75;4.68;;;;;;;32.89;62.73;100747.63;5053391;28;65702;-32
2024/02/28 05:45:26;;;;;;;5.30;4.80;;;;;;;32.94;62.71;100739.59;5062721;28;70079;-34
2024/02/28 05:47:57;;;;;;;7.60;4.57;;;;;;;33.02;62.62;100746.59;5041315;28;66288;-30
2024/02/28 05:50:29;;;;;;;5.05;4.47;;;;;;;33.05;62.57;100742.56;5049757;28;69256;-31
2024/02/28 05:53:00;;;;;;;4.65;4.25;;;;;;;33.08;62.49;100744.81;5046392;28;65685;-31
2024/02/28 05:55:31;;;;;;;5.03;4.60;;;;;;;33.11;62.77;100737.00;5054683;28;69555;-31
2024/02/28 05:58:01;;;;;;;4.78;4.38;;;;;;;33.13;62.55;100742.19;5046097;28;65526;-32
2024/02/28 06:00:34;;;;;;;5.00;4.50;;;;;;;33.16;62.46;100733.56;5050214;28;71554;-32
2024/02/28 06:03:05;;;;;;;5.55;4.50;;;;;;;33.16;62.33;100719.97;5054911;28;66298;-31
2024/02/28 06:05:36;;;;;;;4.82;4.53;;;;;;;33.21;62.47;100716.53;5044770;28;69541;-31
2024/02/28 06:08:10;;;;;;;4.78;4.13;;;;;;;33.24;62.43;100718.75;5054411;28;65332;-30
2024/02/28 06:10:46;;;;;;;4.82;4.30;;;;;;;33.26;62.49;100709.28;5062248;28;70508;-30
2024/02/28 06:13:18;;;;;;;5.07;4.65;;;;;;;33.29;62.36;100706.13;5060959;28;65467;-33
2024/02/28 06:15:48;;;;;;;4.87;4.47;;;;;;;33.32;62.50;100702.91;5061908;28;69140;-32
2024/02/28 06:18:19;;;;;;;4.53;4.22;;;;;;;33.40;62.19;100703.59;5055080;28;66365;-33
2024/02/28 06:20:50;;;;;;;6.85;4.90;;;;;;;33.43;62.13;100697.66;5053045;28;70495;-32
2024/02/28 06:23:21;;;;;;;4.53;4.22;;;;;;;33.44;62.17;100689.28;5046438;28;66317;-30
2024/02/28 06:25:57;;;;;;;4.28;3.95;;;;;;;33.46;62.17;100692.59;5043995;28;70841;-31
2024/02/28 06:28:28;;;;;;;5.35;4.85;;;;;;;33.48;62.17;100686.88;5043226;28;66118;-35
2024/02/28 06:30:59;;;;;;;4.32;4.03;;;;;;;33.56;61.98;100681.91;5045404;28;70197;-31
2024/02/28 06:33:30;;;;;;;4.95;4.55;;;;;;;33.57;61.80;100683.59;5045534;28;66702;-30
2024/02/28 06:36:00;;;;;;;4.47;4.10;;;;;;;33.63;61.91;100676.34;5057563;28;69644;-30
2024/02/28 06:38:31;;;;;;;4.63;4.22;;;;;;;33.64;62.15;100672.53;5052844;28;65987;-30
2024/02/28 06:41:05;;;;;;;4.47;4.18;;;;;;;33.68;61.76;100668.25;5050202;28;70442;-32
2024/02/28 06:43:37;;;;;;;4.93;4.53;;;;;;;33.70;61.64;100666.13;5046159;28;66516;-31
2024/02/28 06:46:07;;;;;;;4.28;3.88;;;;;;;33.72;61.82;100657.72;5054207;28;69994;-30
2024/02/28 06:48:38;;;;;;;4.00;3.70;;;;;;;33.75;61.79;100658.06;5055371;28;66813;-32
2024/02/28 06:51:09;;;;;;;4.40;4.10;;;;;;;33.78;61.76;100654.00;5056210;28;69902;-31
2024/02/28 06:53:41;;;;;;;4.45;4.05;;;;;;;33.85;61.67;100657.41;5056538;28;66222;-31
2024/02/28 06:56:12;;;;;;;6.10;4.63;;;;;;;33.88;61.60;100656.06;5070406;28;69899;-32
2024/02/28 06:58:43;;;;;;;4.97;4.57;;;;;;;33.93;61.75;100648.81;5043183;28;66364;-31
2024/02/28 07:01:13;;;;;;;7.05;4.22;;;;;;;33.99;61.34;100647.00;5046196;28;69853;-32
2024/02/28 07:03:44;;;;;;;4.78;4.38;;;;;;;33.98;61.33;100645.38;5060270;28;66118;-31
2024/02/28 07:06:16;;;;;;;4.70;4.30;;;;;;;34.05;61.26;100640.63;5042452;28;69404;-30
2024/02/28 07:08:47;;;;;;;8.13;4.28;;;;;;;34.11;61.45;100639.63;5044000;28;66490;-30
2024/02/28 07:11:17;;;;;;;8.00;4.38;;;;;;;34.09;61.47;100630.88;5043756;28;69315;-31
2024/02/28 07:13:48;;;;;;;3.97;3.67;;;;;;;34.18;61.58;100639.44;5059530;28;65826;-33
2024/02/28 07:16:19;;;;;;;5.45;4.85;;;;;;;34.17;61.44;100626.94;5050813;28;69737;-32
2024/02/28 07:18:49;;;;;;;10.55;4.47;;;;;;;34.21;61.12;100628.91;5057139;28;66267;-33
2024/02/28 07:21:20;;;;;;;5.28;4.82;;;;;;;34.28;61.00;100622.47;5054606;28;69711;-36
2024/02/28 07:23:50;;;;;;;5.93;5.43;;;;;;;34.33;61.14;100614.38;5066569;28;66557;-31
2024/02/28 07:26:21;;;;;;;5.47;4.97;;;;;;;34.32;61.33;100618.97;5047889;28;70795;-31
2024/02/28 07:28:56;;;;;;;7.90;5.35;;;;;;;34.42;61.42;100621.03;5059514;28;66787;-30
2024/02/28 07:31:27;;;;;;;6.38;5.88;;;;;;;34.44;61.30;100616.16;5053698;28;70400;-32
2024/02/28 07:33:58;;;;;;;;;;;;;;;34.48;61.31;100617.28;5051110;28;65366;-31
2024/02/28 07:36:28;;;;;;;12.30;5.35;;;;;;;34.56;60.90;100624.25;5057257;28;69531;-33
2024/02/28 07:38:59;;;;;;;5.72;5.05;;;;;;;34.59;61.09;100613.66;5056079;28;66240;-32
2024/02/28 07:41:29;;;;;;;5.72;5.22;;;;;;;34.63;61.34;100614.81;5054167;28;69282;-33
2024/02/28 07:44:00;;;;;;;5.57;5.18;;;;;;;34.66;61.03;100617.03;5047216;28;66448;-32
2024/02/28 07:46:31;;;;;;;8.33;5.13;;;;;;;34.68;61.49;100609.41;5054993;28;71055;-31
2024/02/28 07:49:02;;;;;;;5.75;4.82;;;;;;;34.74;61.32;100609.47;5057495;28;66507;-31
2024/02/28 07:51:32;;;;;;;5.17;4.70;;;;;;;34.77;61.43;100608.97;5057754;28;70097;-31
2024/02/28 07:54:03;;;;;;;7.23;5.10;;;;;;;34.79;61.42;100606.81;5047891;28;66294;-34
2024/02/28 07:56:34;;;;;;;5.80;5.30;;;;;;;34.86;60.90;100604.75;5050345;28;69283;-32
2024/02/28 07:59:04;;;;;;;6.40;5.45;;;;;;;34.91;61.35;100604.81;5051241;28;65601;-33
2024/02/28 08:01:39;;;;;;;9.27;5.00;;;;;;;34.93;60.95;100597.19;5055898;28;70481;-32
2024/02/28 08:04:10;;;;;;;6.20;4.82;;;;;;;35.00;61.11;100595.09;5049535;28;66619;-32
2024/02/28 08:06:41;;;;;;;6.20;4.45;;;;;;;35.03;60.79;100591.84;5041732;28;69560;-34
2024/02/28 08:09:37;;;;;;;9.43;5.40;;;;;;;35.08;60.94;100588.41;5053662;28;65788;-33
2024/02/28 08:12:08;;;;;;;5.05;4.55;;;;;;;35.16;60.67;100595.28;5057456;28;70158;-32
2024/02/28 08:14:39;;;;;;;5.45;5.00;;;;;;;35.23;61.19;100590.47;5043619;28;64990;-32
2024/02/28 08:17:09;;;;;;;5.13;4.70;;;;;;;35.26;61.19;100589.94;5049055;28;69830;-31
2024/02/28 08:19:42;;;;;;;8.80;4.80;;;;;;;35.35;60.64;100599.28;5054519;28;66251;-33
2024/02/28 08:22:13;;;;;;;5.18;4.63;;;;;;;35.31;60.66;100577.19;5046913;28;69374;-33
2024/02/28 08:24:43;;;;;;;6.68;4.22;;;;;;;35.47;61.05;100586.34;5050295;28;65624;-31
2024/02/28 08:27:14;;;;;;;5.40;4.93;;;;;;;35.49;60.45;100589.59;5060424;28;70267;-32
2024/02/28 08:29:45;;;;;;;4.97;4.53;;;;;;;35.55;60.36;100588.59;5057702;28;65045;-31
2024/02/28 08:32:17;;;;;;;8.13;5.13;;;;;;;35.60;60.78;100578.81;5057999;28;69960;-31
2024/02/28 08:34:49;;;;;;;5.00;4.40;;;;;;;35.69;60.32;100588.16;5055929;28;66169;-33
2024/02/28 08:37:19;;;;;;;5.50;4.15;;;;;;;35.75;60.29;100592.63;5059333;28;68905;-34
2024/02/28 08:39:50;;;;;;;5.37;4.30;;;;;;;35.79;60.95;100600.00;5040807;28;66293;-32
2024/02/28 08:42:21;;;;;;;5.23;3.87;;;;;;;35.85;60.31;100598.13;5040796;28;69617;-32
2024/02/28 08:44:52;;;;;;;6.27;4.83;;;;;;;35.85;60.73;100597.31;5041486;28;65516;-31
2024/02/28 08:47:24;;;;;;;10.38;3.85;;;;;;;36.00;59.94;100608.34;5052481;28;69947;-34
2024/02/28 08:49:55;;;;;;;4.88;3.92;;;;;;;35.96;60.08;100596.31;5050459;28;65544;-32
2024/02/28 08:52:25;;;;;;;5.53;4.43;;;;;;;36.06;59.88;100609.25;5051675;28;70684;-32
2024/02/28 08:54:56;;;;;;;5.47;4.80;;;;;;;36.15;60.08;100613.13;5049387;28;66705;-32
2024/02/28 08:57:27;;;;;;;8.68;4.70;;;;;;;36.21;59.87;100617.53;5056039;28;70115;-33
2024/02/28 08:59:58;;;;;;;6.88;4.15;;;;;;;36.25;59.81;100615.94;5048285;28;66617;-30
2024/02/28 09:02:29;;;;;;;6.22;4.28;;;;;;;36.30;59.82;100618.66;5042855;28;70877;-31
2024/02/28 09:04:59;;;;;;;7.72;4.78;;;;;;;36.35;60.26;100607.78;5046848;28;65634;-32
2024/02/28 09:07:31;;;;;;;7.40;4.95;;;;;;;36.39;59.61;100617.09;5049179;28;70247;-31
2024/02/28 09:10:07;;;;;;;5.38;4.25;;;;;;;36.44;59.64;100611.69;5057085;28;66579;-31
2024/02/28 09:12:38;;;;;;;4.50;4.10;;;;;;;36.53;60.10;100622.09;5043620;28;70187;-31
2024/02/28 09:15:09;;;;;;;5.93;4.38;;;;;;;36.58;60.18;100619.41;5039617;28;65965;-32
2024/02/28 09:17:40;;;;;;;8.10;4.80;;;;;;;36.61;59.47;100607.94;5054457;28;70424;-32
2024/02/28 09:20:11;;;;;;;20.65;5.50;;;;;;;36.69;60.20;100607.44;5039135;28;66464;-31
2024/02/28 09:22:41;;;;;;;;;;;;;;;36.74;60.26;100618.38;5047516;28;69623;-32
2024/02/28 09:25:12;;;;;;;6.95;5.10;;;;;;;36.82;60.55;100611.59;5049055;28;66712;-31
2024/02/28 09:27:43;;;;;;;11.23;4.63;;;;;;;36.82;60.66;100612.41;5046606;28;70446;-33
2024/02/28 09:30:14;;;;;;;6.90;4.93;;;;;;;36.88;60.15;100622.25;5040515;28;66551;-34
2024/02/28 09:32:45;;;;;;;16.10;4.93;;;;;;;36.87;60.62;100620.63;5052610;28;69211;-31
2024/02/28 09:35:15;;;;;;;11.30;5.20;;;;;;;36.84;60.60;100626.63;5046719;28;66606;-30
2024/02/28 09:37:46;;;;;;;9.25;5.10;;;;;;;36.95;60.50;100635.72;5040511;28;70155;-30
2024/02/28 09:40:18;;;;;;;13.07;5.43;;;;;;;36.99;61.14;100633.25;5045665;28;66610;-31
2024/02/28 09:42:58;;;;;;;8.30;5.00;;;;;;;37.01;60.46;100631.06;5046488;28;70489;-30
2024/02/28 09:45:32;;;;;;;12.57;4.97;;;;;;;37.07;60.88;100639.03;5053975;28;65626;-32
2024/02/28 09:48:04;;;;;;;7.43;5.28;;;;;;;37.11;60.99;100639.31;5040002;28;70280;-32
2024/02/28 09:50:36;;;;;;;13.25;5.63;;;;;;;37.12;61.30;100647.28;5040555;28;66508;-31
2024/02/28 09:53:06;;;;;;;;;;;;;;;37.06;61.05;100653.81;5049283;28;69855;-31
2024/02/28 09:55:39;;;;;;;9.68;5.30;;;;;;;37.08;60.53;100642.59;5044308;28;66951;-31
2024/02/28 09:58:11;;;;;;;15.27;5.97;;;;;;;36.95;61.12;100632.16;5047320;28;70353;-31
2024/02/28 10:00:43;;;;;;;9.93;5.72;;;;;;;37.10;60.77;100654.91;5055357;28;66158;-31
2024/02/28 10:03:20;;;;;;;9.80;5.20;;;;;;;37.01;60.80;100637.38;5048062;28;69274;-31
2024/02/28 10:05:51;;;;;;;10.60;5.75;;;;;;;37.15;60.58;100656.03;5050786;28;66561;-35
2024/02/28 10:08:23;;;;;;;14.88;5.25;;;;;;;37.21;60.87;100674.91;5051650;28;72023;-31
2024/02/28 10:10:55;;;;;;;13.85;6.07;;;;;;;37.21;60.97;100674.91;5041293;28;67011;-32
2024/02/28 10:13:26;;;;;;;8.73;5.90;;;;;;;37.19;60.65;100682.56;5040921;28;70463;-33
2024/02/28 10:15:57;;;;;;;14.98;6.32;;;;;;;37.19;60.59;100681.75;5042422;28;66919;-31
2024/02/28 10:18:27;;;;;;;21.77;6.50;;;;;;;37.19;60.47;100693.50;5043467;28;68197;-31
2024/02/28 10:20:58;;;;;;;14.07;6.80;;;;;;;37.18;60.36;100694.59;5047608;28;66108;-34
2024/02/28 10:23:29;;;;;;;14.35;7.55;;;;;;;37.10;60.99;100695.13;5042172;28;69046;-31
2024/02/28 10:26:02;;;;;;;14.65;6.45;;;;;;;36.96;60.96;100666.59;5048142;28;66791;-34
2024/02/28 10:28:32;;;;;;;14.82;7.07;;;;;;;37.13;60.75;100700.03;5043151;28;70122;-32
2024/02/28 10:31:04;;;;;;;10.53;6.53;;;;;;;37.10;60.38;100703.31;5049025;28;65808;-30
2024/02/28 10:33:35;;;;;;;18.73;7.43;;;;;;;37.06;60.55;100694.00;5046133;28;69347;-31
2024/02/28 10:36:07;;;;;;;19.80;9.25;;;;;;;37.06;60.56;100703.03;5051162;28;66376;-32
2024/02/28 10:38:37;;;;;;;16.45;10.07;;;;;;;37.08;61.01;100713.69;5051653;28;69330;-30
2024/02/28 10:41:08;;;;;;;24.03;12.53;;;;;;;37.05;60.49;100708.75;5053892;28;66369;-32
2024/02/28 10:43:43;;;;;;;36.83;18.95;;;;;;;37.00;60.26;100716.91;5049998;28;69953;-31
2024/02/28 10:46:16;;;;;;;39.90;17.52;;;;;;;36.79;59.60;100697.69;5073065;28;67720;-32
2024/02/28 10:49:06;;;;;;;35.40;14.90;;;;;;;36.87;59.53;100724.50;5047693;28;69936;-32
2024/02/28 10:51:37;;;;;;;24.20;11.13;;;;;;;36.84;58.79;100735.16;5044422;28;66726;-34
2024/02/28 10:54:15;;;;;;;38.40;9.10;;;;;;;36.80;58.17;100734.84;5044570;28;69492;-31
2024/02/28 10:56:46;;;;;;;20.70;8.88;;;;;;;36.80;59.04;100737.56;5048365;28;65477;-31
2024/02/28 10:59:16;;;;;;;;;;;;;;;36.64;58.31;100753.06;5045310;28;69981;-32
2024/02/28 11:01:47;;;;;;;21.15;9.32;;;;;;;36.74;58.92;100746.03;5051837;28;65560;-31
2024/02/28 11:04:18;;;;;;;21.25;8.73;;;;;;;36.74;58.17;100759.69;5041660;28;70233;-32
2024/02/28 11:06:55;;;;;;;35.47;8.80;;;;;;;36.66;58.42;100766.47;5041596;28;65324;-33
2024/02/28 11:09:31;;;;;;;20.15;7.97;;;;;;;36.32;58.09;100714.84;5046705;28;70552;-33
2024/02/28 11:12:05;;;;;;;19.08;8.18;;;;;;;36.37;57.89;100731.25;5048158;28;66752;-32
2024/02/28 11:14:36;;;;;;;20.60;8.20;;;;;;;36.59;57.95;100765.88;5052847;28;70196;-31
2024/02/28 11:17:06;;;;;;;19.30;8.20;;;;;;;36.51;58.05;100769.06;5051822;28;66913;-32
2024/02/28 11:19:37;;;;;;;20.58;8.52;;;;;;;36.45;58.13;100777.22;5049302;28;70603;-32
2024/02/28 11:22:07;;;;;;;23.02;9.88;;;;;;;36.37;58.30;100769.50;5054523;28;65557;-32
2024/02/28 11:24:39;;;;;;;27.40;9.63;;;;;;;36.37;57.76;100774.97;5043230;28;70304;-31
2024/02/28 11:27:15;;;;;;;;;;;;;;;36.33;58.64;100778.47;5048765;28;65965;-35
2024/02/28 11:29:46;;;;;;;24.50;11.02;;;;;;;36.33;58.07;100773.84;5048172;28;69808;-31
2024/02/28 11:32:17;;;;;;;;;;;;;;;36.23;58.54;100780.03;5046170;28;65384;-34
2024/02/28 11:34:47;;;;;;;19.40;8.95;;;;;;;36.28;58.04;100787.47;5044354;28;69873;-33
2024/02/28 11:37:18;;;;;;;19.80;8.90;;;;;;;36.20;58.69;100790.66;5045434;28;66551;-35
2024/02/28 11:39:49;;;;;;;;;;;;;;;36.12;58.55;100799.31;5056007;28;70517;-32
2024/02/28 11:42:19;;;;;;;15.23;8.32;;;;;;;36.12;57.96;100793.88;5049009;28;65883;-31